Aérodrome :
LOGIN :

S'inscrire | Disclaimer

   EN    FR    IT 

 










Légende :    VFR   VFR Marginal   IFR   IFR Intensif   IFR Très Intensif
Visi : 
Plafond : 
>= 8 km
>= 3000ft
5 à 8 km
1000 à 3000 ft
1500m à 5 km
500 à 1000 ft
800 à 1500m
200 à 500 ft
< 800m
< 200 ft
Symboles :   Orages  Brouillard  Fortes neiges  Fortes précipitations  Vent > 20 kt
SIGMETs :   Divers  Orages  Givrage  Turbulence  Onde Orograph.  Cendres Volcan.






- Altitude de l'aérodrome : 200 ft


EBBL - Klein Brogel AB

DERNIER METAR :
  • 281825Z AUTO 36013KT 9999 BKN040/// 09/01 Q1024 BLU

METARs EXPIRÉS :
  • 281755Z AUTO 36010KT 9999 FEW039/// 10/01 Q1024 BLU
  • 281725Z AUTO 36012KT 9999 BKN041/// 11/02 Q1023 BLU
  • 281655Z AUTO 02012KT 9999 NCD 12/M02 Q1023 BLU
  • 281625Z AUTO 01012KT 9999 NCD 13/M02 Q1023 BLU
  • 281555Z AUTO 02011KT 9999 NCD 13/M02 Q1022 BLU

Prévision TAF périmée.



MET'MAP, la Météo Aéronautique d'un coup d'oeil ! - Copyright ORBIFLY Décembre 2007 - Disclaimer

ORBIFLY MET'MAP TEAM :

Programmation & Développement : Alexandra Zaïnal
Sur une idée originale de : Baudouin d'Aumeries
Assistance à la programmation : Marc-Olivier Méhu
Soutien technique & logistique : Manuel Goepfert

Contact : metmap@orbifly.com




SOURCES & CREDITS :

   NOAA